createdAt,value
2022-11-24T00:01:07.796Z,84.06
2022-11-24T00:03:35.683Z,83.87
2022-11-24T00:06:05.412Z,83.92
2022-11-24T00:08:33.368Z,83.86
2022-11-24T00:11:05.238Z,83.92
2022-11-24T00:13:34.241Z,83.95
2022-11-24T00:16:12.139Z,84.06
2022-11-24T00:18:40.534Z,84.10
2022-11-24T00:21:08.722Z,83.99
2022-11-24T00:23:37.280Z,83.86
2022-11-24T00:26:07.187Z,83.79
2022-11-24T00:28:36.218Z,83.83
2022-11-24T00:31:05.701Z,83.67
2022-11-24T00:33:34.926Z,83.74
2022-11-24T00:36:02.713Z,83.23
2022-11-24T00:38:30.468Z,83.48
2022-11-24T00:40:58.221Z,83.41
2022-11-24T00:43:25.986Z,83.24
2022-11-24T00:45:53.794Z,83.44
2022-11-24T00:48:22.813Z,83.50
2022-11-24T00:50:58.547Z,83.64
2022-11-24T00:53:26.628Z,83.57
2022-11-24T00:55:54.487Z,83.32
2022-11-24T00:58:22.581Z,83.30
2022-11-24T01:00:50.679Z,83.46
2022-11-24T01:03:19.739Z,83.32
2022-11-24T01:05:47.509Z,83.21
2022-11-24T01:08:16.634Z,83.23
2022-11-24T01:10:44.388Z,83.16
2022-11-24T01:13:13.225Z,83.02
2022-11-24T01:15:41.352Z,82.96
2022-11-24T01:18:09.217Z,82.77
2022-11-24T01:20:37.691Z,83.06
2022-11-24T01:23:05.448Z,82.96
2022-11-24T01:25:34.565Z,83.29
2022-11-24T01:28:02.427Z,83.27
2022-11-24T01:30:30.241Z,83.37
2022-11-24T01:32:58.008Z,83.11
2022-11-24T01:35:25.749Z,83.38
2022-11-24T01:37:53.527Z,83.58
2022-11-24T01:40:21.761Z,83.50
2022-11-24T01:42:53.592Z,83.48
2022-11-24T01:45:40.601Z,83.51
2022-11-24T01:48:16.161Z,83.73
2022-11-24T01:50:45.131Z,83.59
2022-11-24T01:53:14.592Z,83.80
2022-11-24T01:55:42.473Z,83.78
2022-11-24T01:58:15.581Z,83.95
2022-11-24T02:00:45.915Z,83.96
2022-11-24T02:03:18.555Z,84.12
2022-11-24T02:05:51.291Z,84.03
2022-11-24T02:08:23.946Z,84.30
2022-11-24T02:10:51.733Z,84.13
2022-11-24T02:13:21.767Z,84.23
2022-11-24T02:15:49.709Z,84.39
2022-11-24T02:18:17.473Z,84.21
2022-11-24T02:20:45.256Z,84.27
2022-11-24T02:23:19.642Z,84.32
2022-11-24T02:25:58.420Z,84.52
2022-11-24T02:28:29.893Z,84.47
2022-11-24T02:30:58.261Z,84.45
2022-11-24T02:33:26.351Z,84.47
2022-11-24T02:35:54.408Z,84.47
2022-11-24T02:38:31.097Z,84.44
2022-11-24T02:41:01.808Z,84.58
2022-11-24T02:43:35.563Z,84.43
2022-11-24T02:46:03.406Z,84.30
2022-11-24T02:48:31.369Z,84.38
2022-11-24T02:50:59.105Z,84.25
2022-11-24T02:53:26.909Z,84.03
2022-11-24T02:55:54.695Z,83.82
2022-11-24T02:58:22.621Z,83.76
2022-11-24T03:00:54.212Z,83.91
2022-11-24T03:03:22.077Z,84.00
2022-11-24T03:05:49.916Z,84.05
2022-11-24T03:08:17.738Z,84.06
2022-11-24T03:10:45.867Z,84.18
2022-11-24T03:13:13.664Z,84.18
2022-11-24T03:15:41.549Z,84.26
2022-11-24T03:18:10.691Z,84.26
2022-11-24T03:20:38.584Z,84.06
2022-11-24T03:23:06.452Z,84.24
2022-11-24T03:25:34.285Z,84.43
2022-11-24T03:28:02.143Z,84.45
2022-11-24T03:30:30.329Z,84.36
2022-11-24T03:32:58.090Z,84.24
2022-11-24T03:35:27.275Z,84.24
2022-11-24T03:37:55.048Z,84.21
2022-11-24T03:40:22.815Z,84.02
2022-11-24T03:42:50.605Z,83.87
2022-11-24T03:48:08.195Z,83.44
2022-11-24T03:50:37.340Z,83.28
2022-11-24T03:53:05.218Z,83.09
2022-11-24T03:55:33.071Z,83.10
2022-11-24T03:58:00.818Z,82.69
2022-11-24T04:00:28.806Z,82.52
2022-11-24T04:02:56.563Z,82.77
2022-11-24T04:05:25.217Z,82.68
2022-11-24T04:07:56.446Z,82.53
2022-11-24T04:10:24.276Z,82.88
2022-11-24T04:12:51.053Z,82.93
2022-11-24T04:15:20.439Z,82.66
2022-11-24T04:17:48.661Z,82.71
2022-11-24T04:20:17.552Z,82.80
2022-11-24T04:22:45.295Z,83.05
2022-11-24T04:25:17.351Z,83.56
2022-11-24T04:27:45.206Z,84.15
2022-11-24T04:30:13.310Z,84.40
2022-11-24T04:32:41.058Z,84.70
2022-11-24T04:35:09.332Z,85.17
2022-11-24T04:37:37.188Z,85.31
2022-11-24T04:40:05.976Z,85.65
2022-11-24T04:42:35.479Z,86.05
2022-11-24T04:45:03.524Z,86.23
2022-11-24T04:47:31.348Z,86.83
2022-11-24T04:49:59.187Z,87.19
2022-11-24T04:52:27.265Z,87.36
2022-11-24T04:54:54.970Z,87.04
2022-11-24T04:57:25.074Z,86.16
2022-11-24T04:59:55.258Z,88.22
2022-11-24T05:02:23.425Z,86.64
2022-11-24T05:04:51.716Z,86.35
2022-11-24T05:07:20.192Z,86.53
2022-11-24T05:10:06.191Z,85.47
2022-11-24T05:12:34.093Z,86.28
2022-11-24T05:15:05.781Z,86.14
2022-11-24T05:17:35.738Z,86.36
2022-11-24T05:20:03.736Z,87.74
2022-11-24T05:22:31.614Z,88.46
2022-11-24T05:24:59.435Z,88.29
2022-11-24T05:27:27.379Z,88.38
2022-11-24T05:29:55.205Z,88.51
2022-11-24T05:32:24.603Z,89.03
2022-11-24T05:34:53.809Z,86.89
2022-11-24T05:37:21.513Z,85.98
2022-11-24T05:39:49.314Z,86.24
2022-11-24T05:42:34.691Z,85.29
2022-11-24T05:45:02.483Z,85.03
2022-11-24T05:47:32.045Z,85.07
2022-11-24T05:49:59.792Z,85.12
2022-11-24T05:52:27.551Z,86.16
2022-11-24T05:54:55.339Z,86.75
2022-11-24T05:57:23.143Z,85.27
2022-11-24T05:59:50.927Z,86.32
2022-11-24T06:02:19.236Z,86.40
2022-11-24T06:04:48.487Z,87.14
2022-11-24T06:07:16.612Z,86.04
2022-11-24T06:09:44.431Z,85.75
2022-11-24T06:12:13.575Z,86.27
2022-11-24T06:14:41.576Z,86.30
2022-11-24T06:17:11.543Z,87.51
2022-11-24T06:19:42.088Z,86.03
2022-11-24T06:22:11.557Z,86.96
2022-11-24T06:24:39.388Z,87.96
2022-11-24T06:27:07.681Z,88.15
2022-11-24T06:29:35.484Z,88.24
2022-11-24T06:32:03.330Z,88.69
2022-11-24T06:34:31.304Z,88.66
2022-11-24T06:36:59.132Z,88.80
2022-11-24T06:39:28.273Z,88.75
2022-11-24T06:41:56.179Z,88.65
2022-11-24T06:44:23.933Z,88.59
2022-11-24T06:46:51.722Z,87.96
2022-11-24T06:49:19.565Z,88.35
2022-11-24T06:51:47.650Z,88.29
2022-11-24T06:54:17.099Z,88.49
2022-11-24T06:56:46.215Z,88.64
2022-11-24T06:59:17.890Z,88.67
2022-11-24T07:01:46.850Z,88.76
2022-11-24T07:04:15.048Z,88.56
2022-11-24T07:06:43.248Z,88.73
2022-11-24T07:09:12.695Z,88.71
2022-11-24T07:11:41.090Z,88.38
2022-11-24T07:14:10.280Z,88.49
2022-11-24T07:16:38.435Z,88.53
2022-11-24T07:19:06.282Z,88.58
2022-11-24T07:21:34.130Z,88.30
2022-11-24T07:24:02.019Z,88.21
2022-11-24T07:26:29.908Z,87.85
2022-11-24T07:28:57.939Z,87.62
2022-11-24T07:31:27.258Z,87.85
2022-11-24T07:33:55.943Z,87.84
2022-11-24T07:36:24.792Z,87.76
2022-11-24T07:38:52.704Z,87.64
2022-11-24T07:41:21.365Z,87.75
2022-11-24T07:43:50.622Z,87.85
2022-11-24T07:46:20.033Z,87.55
2022-11-24T07:48:49.305Z,87.40
2022-11-24T07:51:17.320Z,87.03
2022-11-24T07:53:46.280Z,87.08
2022-11-24T07:56:14.049Z,87.12
2022-11-24T07:58:41.817Z,86.99
2022-11-24T08:01:12.208Z,86.64
2022-11-24T08:03:40.412Z,86.30
2022-11-24T08:06:30.320Z,86.44
2022-11-24T08:08:58.583Z,85.91
2022-11-24T08:11:27.002Z,85.87
2022-11-24T08:13:55.012Z,85.69
2022-11-24T08:16:23.272Z,86.01
2022-11-24T08:18:52.312Z,85.82
2022-11-24T08:21:23.142Z,86.01
2022-11-24T08:23:51.227Z,85.82
2022-11-24T08:26:19.400Z,85.78
2022-11-24T08:28:48.384Z,85.49
2022-11-24T08:31:19.556Z,85.61
2022-11-24T08:33:47.899Z,85.38
2022-11-24T08:36:17.786Z,85.54
2022-11-24T08:38:48.893Z,85.56
2022-11-24T08:41:18.129Z,85.61
2022-11-24T08:43:45.965Z,85.65
2022-11-24T08:46:17.096Z,84.70
2022-11-24T08:48:45.373Z,84.86
2022-11-24T08:51:15.135Z,85.03
2022-11-24T08:53:43.731Z,84.89
2022-11-24T08:56:14.280Z,84.73
2022-11-24T08:58:43.008Z,83.17
2022-11-24T09:01:13.065Z,79.48
2022-11-24T09:03:46.570Z,77.09
2022-11-24T09:06:18.387Z,75.87
2022-11-24T09:08:46.219Z,76.47
2022-11-24T09:11:17.239Z,74.55
2022-11-24T09:13:45.775Z,73.39
2022-11-24T09:16:15.672Z,71.14
2022-11-24T09:18:43.722Z,71.02
2022-11-24T09:21:13.748Z,70.95
2022-11-24T09:23:42.174Z,71.73
2022-11-24T09:26:11.658Z,71.82
2022-11-24T09:28:40.922Z,71.18
2022-11-24T09:31:09.630Z,71.31
2022-11-24T09:33:38.387Z,71.28
2022-11-24T09:36:07.078Z,70.03
2022-11-24T09:38:35.360Z,72.92
2022-11-24T09:41:39.997Z,71.13
2022-11-24T09:44:18.927Z,70.68
2022-11-24T09:46:58.769Z,71.45
2022-11-24T09:49:34.371Z,69.22
2022-11-24T09:52:08.814Z,68.09
2022-11-24T09:54:37.582Z,67.71
2022-11-24T09:57:08.284Z,67.83
2022-11-24T09:59:37.711Z,68.06
2022-11-24T10:02:13.101Z,67.05
2022-11-24T10:04:44.056Z,64.88
2022-11-24T10:07:20.159Z,65.42
2022-11-24T10:09:57.615Z,66.82
2022-11-24T10:12:37.371Z,66.31
2022-11-24T10:15:29.600Z,65.67
2022-11-24T10:18:17.246Z,65.37
2022-11-24T10:20:55.793Z,64.98
2022-11-24T10:23:43.705Z,64.76
2022-11-24T10:26:18.953Z,64.45
2022-11-24T10:28:52.798Z,63.66
2022-11-24T10:31:30.480Z,64.39
2022-11-24T10:34:01.657Z,63.86
2022-11-24T10:36:38.549Z,64.28
2022-11-24T10:39:14.527Z,64.26
2022-11-24T10:41:50.472Z,64.28
2022-11-24T10:44:18.282Z,64.09
2022-11-24T10:46:47.495Z,63.63
2022-11-24T10:49:18.109Z,63.69
2022-11-24T10:51:53.887Z,64.72
2022-11-24T10:54:23.596Z,63.99
2022-11-24T10:56:53.042Z,63.98
2022-11-24T10:59:39.372Z,64.72
2022-11-24T11:02:33.946Z,64.37
2022-11-24T11:05:28.770Z,64.20
2022-11-24T11:08:17.088Z,63.36
2022-11-24T11:10:46.177Z,64.56
2022-11-24T11:13:25.013Z,63.89
2022-11-24T11:15:52.969Z,63.55
2022-11-24T11:18:23.210Z,64.39
2022-11-24T11:20:53.267Z,63.80
2022-11-24T11:23:26.433Z,63.09
2022-11-24T11:26:19.030Z,62.54
2022-11-24T11:31:14.724Z,64.17
2022-11-24T11:34:48.880Z,63.74
2022-11-24T11:37:18.443Z,64.09
2022-11-24T11:39:49.270Z,63.87
2022-11-24T11:43:00.245Z,63.73
2022-11-24T11:45:17.361Z,64.24
2022-11-24T11:47:50.899Z,63.54
2022-11-24T11:50:26.534Z,63.26
2022-11-24T11:53:10.403Z,61.99
2022-11-24T11:55:50.950Z,62.59
2022-11-24T11:58:50.048Z,62.21
2022-11-24T12:01:27.350Z,64.40
2022-11-24T12:04:02.707Z,64.28
2022-11-24T12:06:51.335Z,63.09
2022-11-24T12:09:34.797Z,63.69
2022-11-24T12:12:18.753Z,63.86
2022-11-24T12:14:57.240Z,65.21
2022-11-24T12:17:35.791Z,64.69
2022-11-24T12:20:17.778Z,64.15
2022-11-24T12:22:54.006Z,64.72
2022-11-24T12:25:27.921Z,64.16
2022-11-24T12:28:06.912Z,63.96
2022-11-24T12:30:41.504Z,63.84
2022-11-24T12:33:38.487Z,64.08
2022-11-24T12:36:14.834Z,64.48
2022-11-24T12:38:55.206Z,64.30
2022-11-24T12:41:43.974Z,63.65
2022-11-24T12:44:28.052Z,63.66
2022-11-24T12:47:03.884Z,63.22
2022-11-24T12:49:38.255Z,63.61
2022-11-24T12:52:16.478Z,65.18
2022-11-24T12:54:45.664Z,66.36
2022-11-24T12:57:19.725Z,67.49
2022-11-24T12:59:53.912Z,68.41
2022-11-24T13:02:29.303Z,69.78
2022-11-24T13:05:02.038Z,70.72
2022-11-24T13:07:40.705Z,70.91
2022-11-24T13:10:54.315Z,71.41
2022-11-24T13:13:18.384Z,71.58
2022-11-24T13:16:35.034Z,71.78
2022-11-24T13:19:03.254Z,71.97
2022-11-24T13:21:47.135Z,72.70
2022-11-24T13:24:30.673Z,72.34
2022-11-24T13:27:40.960Z,72.49
2022-11-24T13:30:54.266Z,72.47
2022-11-24T13:33:31.846Z,72.86
2022-11-24T13:36:29.818Z,72.95
2022-11-24T13:38:58.639Z,73.09
2022-11-24T13:42:43.600Z,73.22
2022-11-24T13:45:02.910Z,72.95
2022-11-24T13:47:39.923Z,73.03
2022-11-24T13:50:10.350Z,73.37
2022-11-24T13:52:47.393Z,73.23
2022-11-24T13:55:29.300Z,73.38
2022-11-24T13:58:01.491Z,73.70
2022-11-24T14:00:33.946Z,73.94
2022-11-24T14:03:05.333Z,74.01
2022-11-24T14:05:37.987Z,74.15
2022-11-24T14:08:08.303Z,73.82
2022-11-24T14:10:38.610Z,73.09
2022-11-24T14:13:29.740Z,73.58
2022-11-24T14:16:04.079Z,73.55
2022-11-24T14:18:32.856Z,73.53
2022-11-24T14:21:02.623Z,73.42
2022-11-24T14:23:30.462Z,73.72
2022-11-24T14:25:58.611Z,73.96
2022-11-24T14:28:27.637Z,73.94
2022-11-24T14:31:09.412Z,73.86
2022-11-24T14:33:37.500Z,73.78
2022-11-24T14:36:06.003Z,74.10
2022-11-24T14:38:34.916Z,73.99
2022-11-24T14:41:16.269Z,74.54
2022-11-24T14:43:47.212Z,74.49
2022-11-24T14:46:21.238Z,74.38
2022-11-24T14:48:50.587Z,73.86
2022-11-24T14:51:21.515Z,74.26
2022-11-24T14:53:52.162Z,74.42
2022-11-24T14:56:25.584Z,74.54
2022-11-24T14:58:54.538Z,74.69
2022-11-24T15:01:32.494Z,74.94
2022-11-24T15:04:46.193Z,75.06
2022-11-24T15:07:14.894Z,75.41
2022-11-24T15:09:51.630Z,75.77
2022-11-24T15:12:28.698Z,75.74
2022-11-24T15:14:59.234Z,75.99
2022-11-24T15:17:30.765Z,76.10
2022-11-24T15:20:01.928Z,76.22
2022-11-24T15:22:38.140Z,76.31
2022-11-24T15:25:28.029Z,76.46
2022-11-24T15:27:56.198Z,76.81
2022-11-24T15:30:24.312Z,76.66
2022-11-24T15:32:55.242Z,76.63
2022-11-24T15:35:23.888Z,76.45
2022-11-24T15:37:52.389Z,76.80
2022-11-24T15:40:20.420Z,76.71
2022-11-24T15:42:52.482Z,76.69
2022-11-24T15:45:21.278Z,76.81
2022-11-24T15:47:50.013Z,77.04
2022-11-24T15:50:19.769Z,76.94
2022-11-24T15:52:48.646Z,77.05
2022-11-24T15:55:19.625Z,77.37
2022-11-24T15:57:47.732Z,77.38
2022-11-24T16:00:17.761Z,77.32
2022-11-24T16:02:45.677Z,77.23
2022-11-24T16:05:14.582Z,77.53
2022-11-24T16:07:48.819Z,77.19
2022-11-24T16:10:21.187Z,77.21
2022-11-24T16:12:48.948Z,77.18
2022-11-24T16:15:16.919Z,77.52
2022-11-24T16:17:44.743Z,77.41
2022-11-24T16:20:12.726Z,77.30
2022-11-24T16:22:40.601Z,77.41
2022-11-24T16:25:10.554Z,77.61
2022-11-24T16:27:38.653Z,77.59
2022-11-24T16:30:08.244Z,77.74
2022-11-24T16:32:36.211Z,77.90
2022-11-24T16:35:04.335Z,78.26
2022-11-24T16:37:32.113Z,78.44
2022-11-24T16:40:01.537Z,78.73
2022-11-24T16:42:30.858Z,79.08
2022-11-24T16:44:58.859Z,79.00
2022-11-24T16:47:26.710Z,79.14
2022-11-24T16:49:54.586Z,79.07
2022-11-24T16:52:22.479Z,78.95
2022-11-24T16:54:50.320Z,78.87
2022-11-24T16:57:18.283Z,78.71
2022-11-24T16:59:48.193Z,78.87
2022-11-24T17:02:17.033Z,78.63
2022-11-24T17:04:45.265Z,78.77
2022-11-24T17:07:13.753Z,78.93
2022-11-24T17:09:41.596Z,78.81
2022-11-24T17:12:09.396Z,79.11
2022-11-24T17:14:37.518Z,79.20
2022-11-24T17:17:06.777Z,79.01
2022-11-24T17:19:34.643Z,79.06
2022-11-24T17:22:02.456Z,79.10
2022-11-24T17:24:30.295Z,79.37
2022-11-24T17:26:58.197Z,79.51
2022-11-24T17:29:26.036Z,79.53
2022-11-24T17:31:53.870Z,79.60
2022-11-24T17:34:23.001Z,79.66
2022-11-24T17:36:50.782Z,79.89
2022-11-24T17:39:23.379Z,79.86
2022-11-24T17:41:52.697Z,80.09
2022-11-24T17:44:20.530Z,79.98
2022-11-24T17:46:48.396Z,79.98
2022-11-24T17:49:16.209Z,79.84
2022-11-24T17:51:46.343Z,79.74
2022-11-24T17:57:01.931Z,80.30
2022-11-24T17:59:29.848Z,80.12
2022-11-24T18:01:57.692Z,79.88
2022-11-24T18:04:25.517Z,79.64
2022-11-24T18:06:54.657Z,79.62
2022-11-24T18:09:22.479Z,79.75
2022-11-24T18:11:51.964Z,79.92
2022-11-24T18:14:19.897Z,79.73
2022-11-24T18:16:47.820Z,80.01
2022-11-24T18:19:15.653Z,80.30
2022-11-24T18:21:45.166Z,80.09
2022-11-24T18:24:17.509Z,80.33
2022-11-24T18:26:50.144Z,80.53
2022-11-24T18:29:17.977Z,80.75
2022-11-24T18:31:45.848Z,80.37
2022-11-24T18:34:13.669Z,80.52
2022-11-24T18:36:41.465Z,80.49
2022-11-24T18:39:09.750Z,80.48
2022-11-24T18:41:40.635Z,80.59
2022-11-24T18:44:08.748Z,80.53
2022-11-24T18:46:37.023Z,80.23
2022-11-24T18:49:05.471Z,80.31
2022-11-24T18:51:33.214Z,80.36
2022-11-24T18:54:02.959Z,80.56
2022-11-24T18:56:30.814Z,80.54
2022-11-24T18:59:00.003Z,80.46
2022-11-24T19:01:29.595Z,80.41
2022-11-24T19:03:59.504Z,80.21
2022-11-24T19:06:32.369Z,80.12
2022-11-24T19:09:02.296Z,80.15
2022-11-24T19:11:33.645Z,80.18
2022-11-24T19:14:04.197Z,80.13
2022-11-24T19:16:32.240Z,80.62
2022-11-24T19:19:01.718Z,80.50
2022-11-24T19:21:31.105Z,80.35
2022-11-24T19:24:04.517Z,80.67
2022-11-24T19:26:33.080Z,80.45
2022-11-24T19:29:02.266Z,80.56
2022-11-24T19:31:30.133Z,80.26
2022-11-24T19:33:59.618Z,80.20
2022-11-24T19:36:27.872Z,80.20
2022-11-24T19:38:57.207Z,79.98
2022-11-24T19:41:25.677Z,79.66
2022-11-24T19:43:54.653Z,79.87
2022-11-24T19:46:26.252Z,79.59
2022-11-24T19:48:56.938Z,79.47
2022-11-24T19:51:26.428Z,79.66
2022-11-24T19:53:55.078Z,79.67
2022-11-24T19:56:24.814Z,79.42
2022-11-24T19:58:54.275Z,79.32
2022-11-24T20:01:25.654Z,79.19
2022-11-24T20:03:58.786Z,79.11
2022-11-24T20:06:28.090Z,79.05
2022-11-24T20:08:55.826Z,78.89
2022-11-24T20:11:23.786Z,79.14
2022-11-24T20:13:51.812Z,78.96
2022-11-24T20:16:26.141Z,79.00
2022-11-24T20:18:57.311Z,79.20
2022-11-24T20:21:28.482Z,79.40
2022-11-24T20:23:58.619Z,79.40
2022-11-24T20:26:29.134Z,79.44
2022-11-24T20:28:58.357Z,79.10
2022-11-24T20:31:28.803Z,79.08
2022-11-24T20:33:58.312Z,78.97
2022-11-24T20:36:28.626Z,79.04
2022-11-24T20:38:57.197Z,79.30
2022-11-24T20:41:26.882Z,79.40
2022-11-24T20:43:56.409Z,79.42
2022-11-24T20:46:26.157Z,79.39
2022-11-24T20:48:55.684Z,79.42
2022-11-24T20:51:27.995Z,79.27
2022-11-24T20:53:57.617Z,79.61
2022-11-24T20:56:27.423Z,79.67
2022-11-24T20:58:56.474Z,79.73
2022-11-24T21:01:26.688Z,80.21
2022-11-24T21:03:56.701Z,80.14
2022-11-24T21:06:26.585Z,80.41
2022-11-24T21:08:55.984Z,80.28
2022-11-24T21:11:27.352Z,80.63
2022-11-24T21:13:55.352Z,80.80
2022-11-24T21:16:28.531Z,81.07
2022-11-24T21:18:58.833Z,81.18
2022-11-24T21:21:33.772Z,81.34
2022-11-24T21:24:01.765Z,81.19
2022-11-24T21:26:29.836Z,81.44
2022-11-24T21:28:58.547Z,81.62
2022-11-24T21:31:26.473Z,81.85
2022-11-24T21:33:55.315Z,81.77
2022-11-24T21:36:26.513Z,81.95
2022-11-24T21:38:57.000Z,81.87
2022-11-24T21:41:26.536Z,81.96
2022-11-24T21:43:55.810Z,82.02
2022-11-24T21:46:23.884Z,82.22
2022-11-24T21:48:51.975Z,82.08
2022-11-24T21:51:20.976Z,82.13
2022-11-24T21:53:49.011Z,82.14
2022-11-24T21:56:20.442Z,82.11
2022-11-24T21:58:49.920Z,82.14
2022-11-24T22:01:19.378Z,82.09
2022-11-24T22:03:47.427Z,82.05
2022-11-24T22:06:20.373Z,82.06
2022-11-24T22:08:49.183Z,81.99
2022-11-24T22:11:21.669Z,82.07
2022-11-24T22:13:50.496Z,82.03
2022-11-24T22:16:19.807Z,82.09
2022-11-24T22:18:47.562Z,82.31
2022-11-24T22:21:16.956Z,82.40
2022-11-24T22:23:44.608Z,82.52
2022-11-24T22:26:14.423Z,82.24
2022-11-24T22:28:44.513Z,82.45
2022-11-24T22:31:13.915Z,82.25
2022-11-24T22:33:43.579Z,81.97
2022-11-24T22:36:12.281Z,81.84
2022-11-24T22:38:40.635Z,81.69
2022-11-24T22:41:09.948Z,81.67
2022-11-24T22:43:39.708Z,81.58
2022-11-24T22:46:11.014Z,81.66
2022-11-24T22:48:39.452Z,81.67
2022-11-24T22:51:09.556Z,81.64
2022-11-24T22:53:37.862Z,81.67
2022-11-24T22:56:07.756Z,81.87
2022-11-24T22:58:35.592Z,81.81
2022-11-24T23:01:08.761Z,81.69
2022-11-24T23:03:37.034Z,81.87
2022-11-24T23:06:08.322Z,81.75
2022-11-24T23:08:37.186Z,81.79
2022-11-24T23:11:07.429Z,81.83
2022-11-24T23:13:36.969Z,81.78
2022-11-24T23:16:06.648Z,81.56
2022-11-24T23:18:36.034Z,81.43
2022-11-24T23:21:07.392Z,81.37
2022-11-24T23:23:35.693Z,81.26
2022-11-24T23:26:05.263Z,81.32
2022-11-24T23:28:33.113Z,81.19
2022-11-24T23:31:02.790Z,81.26
2022-11-24T23:33:31.489Z,81.17
2022-11-24T23:36:03.074Z,81.14
2022-11-24T23:38:32.852Z,81.34
2022-11-24T23:41:04.001Z,81.14
2022-11-24T23:43:31.844Z,81.29
2022-11-24T23:46:03.068Z,81.39
2022-11-24T23:48:31.131Z,81.39
2022-11-24T23:51:06.003Z,81.39
2022-11-24T23:53:34.603Z,81.38
2022-11-24T23:56:02.928Z,81.47
2022-11-24T23:58:31.271Z,81.34
